CheckWX is a tool to help pilots better visualize weather data.  It is not intended as a substitute for an official pre-flight weather briefing.

17:07:45 UTC

OJAM METAR
Amman-Marka International Airport
Amman, Jordan
Current

1 hour ago

OJAM 051600Z 25007KT 3000 DU NSC 22/08 Q1014 NOSIG
Observed
Apr-5 @ 16:00 UTC
Wind
  • 250° at 7 KTS
Visibility
2993 meters
Flight Rules
IFR
Conditions
Dust
Cloud Levels
  • Clear skies
Temperature
22°C / 72°F
Dewpoint
C / 46°F
Humidity
41%
Altimeter
29.94" Hg
Pressure
1013.92 hPa
Previous

2 hours ago

OJAM 051500Z 25010KT 3000 DU NSC 23/06 Q1014 NOSIG
Observed
Apr-5 @ 15:00 UTC
Wind
  • 250° at 10 KTS
Visibility
2993 meters
Flight Rules
IFR
Conditions
Dust
Cloud Levels
  • Clear skies
Temperature
23°C / 73°F
Dewpoint
C / 43°F
Humidity
33%
Altimeter
29.94" Hg
Pressure
1013.92 hPa
Previous

3 hours ago

OJAM 051400Z 25012KT 2500 DU NSC 26/05 Q1014 NOSIG
Observed
Apr-5 @ 14:00 UTC
Wind
  • 250° at 12 KTS
Visibility
2494 meters
Flight Rules
IFR
Conditions
Dust
Cloud Levels
  • Clear skies
Temperature
26°C / 79°F
Dewpoint
C / 41°F
Humidity
26%
Altimeter
29.94" Hg
Pressure
1013.92 hPa